Time;durP1;ratioP1;P1;durP2;ratioP2;P2;SDS_P1;SDS_P2;PMS_P1;PMS_P2;Temp;Humidity;BMP_temperature;BMP_pressure;BME280_temperature;BME280_humidity;BME280_pressure;Samples;Min_cycle;Max_cycle;Signal;HPM_P1;HPM_P2
2021/03/03 00:00:40;;;;;;;18.00;8.58;;;;;;;0.38;89.78;100316.77;1734986;81;21547;-70
2021/03/03 00:03:08;;;;;;;21.85;9.03;;;;;;;0.34;89.85;100316.93;1737861;81;21407;-69
2021/03/03 00:05:35;;;;;;;18.85;7.70;;;;;;;0.30;89.91;100323.32;1765138;81;21072;-69
2021/03/03 00:08:03;;;;;;;20.82;8.63;;;;;;;0.25;90.03;100323.70;1765294;80;21119;-69
2021/03/03 00:10:31;;;;;;;18.98;7.83;;;;;;;0.21;90.38;100318.47;1765205;81;21123;-69
2021/03/03 00:12:58;;;;;;;20.72;8.58;;;;;;;0.18;90.58;100327.03;1751429;80;21550;-70
2021/03/03 00:15:26;;;;;;;16.40;7.95;;;;;;;0.17;90.74;100333.48;1720296;81;21202;-70
2021/03/03 00:17:53;;;;;;;19.67;8.45;;;;;;;0.16;91.30;100327.26;1724728;82;21020;-69
2021/03/03 00:20:21;;;;;;;18.62;8.65;;;;;;;0.13;91.05;100330.94;1734854;82;21123;-69
2021/03/03 00:22:49;;;;;;;23.02;9.25;;;;;;;0.10;91.05;100335.44;1734863;82;21578;-69
2021/03/03 00:25:16;;;;;;;18.57;8.28;;;;;;;0.07;91.00;100333.20;1726776;82;21202;-69
2021/03/03 00:27:43;;;;;;;17.50;7.87;;;;;;;0.04;91.52;100332.30;1705608;84;21225;-69
2021/03/03 00:30:15;;;;;;;19.57;7.40;;;;;;;0.03;91.86;100338.75;1705011;82;21158;-69
2021/03/03 00:32:42;;;;;;;18.60;8.48;;;;;;;-0.01;91.69;100335.72;1705430;84;21220;-69
2021/03/03 00:35:11;;;;;;;18.27;8.20;;;;;;;-0.06;91.69;100340.97;1705268;84;21259;-69
2021/03/03 00:37:39;;;;;;;16.60;7.40;;;;;;;-0.11;91.68;100342.17;1685466;82;21146;-69
2021/03/03 00:40:08;;;;;;;19.87;8.38;;;;;;;-0.13;92.19;100344.27;1734716;82;22386;-69
2021/03/03 00:42:36;;;;;;;16.12;7.78;;;;;;;-0.15;92.24;100339.10;1729220;82;21076;-69
2021/03/03 00:45:05;;;;;;;19.67;8.28;;;;;;;-0.18;92.08;100345.47;1721361;83;21119;-69
2021/03/03 00:47:34;;;;;;;18.15;8.30;;;;;;;-0.20;92.23;100355.14;1721640;83;21143;-69
2021/03/03 00:50:05;;;;;;;21.05;8.95;;;;;;;-0.23;92.31;100348.84;1721766;83;21099;-68
2021/03/03 00:52:33;;;;;;;13.85;7.25;;;;;;;-0.22;92.77;100351.02;1699448;83;22109;-69
2021/03/03 00:55:01;;;;;;;13.62;6.37;;;;;;;-0.24;92.68;100352.59;1692557;84;21147;-69
2021/03/03 00:57:29;;;;;;;13.45;7.58;;;;;;;-0.26;92.67;100349.83;1692755;84;21604;-69
2021/03/03 00:59:57;;;;;;;16.35;6.55;;;;;;;-0.29;92.65;100357.84;1692595;84;21147;-69
2021/03/03 01:02:25;;;;;;;14.35;7.25;;;;;;;-0.30;92.76;100358.07;1692723;84;21131;-70
2021/03/03 01:04:53;;;;;;;16.67;6.50;;;;;;;-0.33;92.73;100359.34;1741270;82;21270;-69
2021/03/03 01:07:22;;;;;;;15.53;6.70;;;;;;;-0.35;92.84;100356.87;1735399;82;21109;-69
2021/03/03 01:09:50;;;;;;;13.83;6.62;;;;;;;-0.36;92.92;100359.27;1721768;83;21129;-69
2021/03/03 01:12:18;;;;;;;18.57;7.60;;;;;;;-0.34;93.18;100365.78;1721742;82;21671;-69
2021/03/03 01:14:48;;;;;;;16.50;7.92;;;;;;;-0.35;93.28;100364.14;1721560;83;21117;-69
2021/03/03 01:17:17;;;;;;;14.23;6.42;;;;;;;-0.35;93.24;100366.31;1721705;82;21375;-69
2021/03/03 01:19:46;;;;;;;14.10;7.00;;;;;;;-0.37;93.35;100368.41;1721594;82;21058;-69
2021/03/03 01:22:14;;;;;;;16.90;7.35;;;;;;;-0.38;93.41;100368.63;1721575;83;21122;-69
2021/03/03 01:24:42;;;;;;;15.32;7.40;;;;;;;-0.36;93.59;100378.67;1721715;83;21062;-70
2021/03/03 01:27:09;;;;;;;13.83;7.10;;;;;;;-0.37;93.62;100372.98;1721751;82;21656;-69
2021/03/03 01:29:37;;;;;;;14.78;7.10;;;;;;;-0.36;93.64;100378.15;1721785;83;21272;-69
2021/03/03 01:32:06;;;;;;;17.37;7.75;;;;;;;-0.37;93.56;100376.50;1721793;83;21074;-69
2021/03/03 01:34:34;;;;;;;19.65;7.90;;;;;;;-0.37;93.72;100377.02;1721777;82;21130;-68
2021/03/03 01:37:02;;;;;;;16.70;8.08;;;;;;;-0.39;93.69;100377.25;1721676;83;21153;-69
2021/03/03 01:39:30;;;;;;;20.23;9.30;;;;;;;-0.42;93.51;100375.00;1721848;83;21587;-68
2021/03/03 01:41:57;;;;;;;17.12;7.87;;;;;;;-0.46;93.38;100375.67;1721640;82;21977;-69
2021/03/03 01:44:25;;;;;;;21.10;8.73;;;;;;;-0.49;93.45;100378.81;1721769;83;21196;-69
2021/03/03 01:46:52;;;;;;;20.27;9.23;;;;;;;-0.50;93.70;100377.98;1721706;83;21664;-69
2021/03/03 01:49:20;;;;;;;22.98;9.58;;;;;;;-0.50;93.95;100376.64;1721621;83;22201;-69
2021/03/03 01:51:47;;;;;;;17.80;8.53;;;;;;;-0.48;93.98;100377.77;1721867;83;21564;-69
2021/03/03 01:54:15;;;;;;;18.07;8.65;;;;;;;-0.49;94.13;100379.64;1721823;83;23592;-69
2021/03/03 01:56:42;;;;;;;14.90;7.78;;;;;;;-0.43;94.71;100379.27;1703328;83;21192;-69
2021/03/03 01:59:10;;;;;;;20.55;8.93;;;;;;;-0.38;94.74;100380.77;1721751;82;21156;-69
2021/03/03 02:01:37;;;;;;;18.05;8.00;;;;;;;-0.34;94.72;100387.38;1721811;83;21644;-69
2021/03/03 02:04:06;;;;;;;17.62;7.37;;;;;;;-0.32;94.58;100383.92;1731571;80;21070;-68
2021/03/03 02:06:38;;;;;;;15.32;7.72;;;;;;;-0.31;94.59;100385.58;1734686;82;21389;-68
2021/03/03 02:09:58;;;;;;;15.55;7.85;;;;;;;-0.27;94.61;100384.08;1889377;76;22693;-71
2021/03/03 02:12:55;;;;;;;15.55;7.78;;;;;;;-0.30;94.53;100382.35;1860515;77;21054;-68
2021/03/03 02:15:22;;;;;;;15.32;7.35;;;;;;;-0.30;94.39;100384.52;1860595;77;21287;-70
2021/03/03 02:17:50;;;;;;;17.45;7.85;;;;;;;-0.32;94.31;100382.58;1860239;77;20998;-70
2021/03/03 02:20:19;;;;;;;21.93;8.80;;;;;;;-0.33;94.31;100391.72;1827801;77;21038;-70
2021/03/03 02:22:55;;;;;;;15.68;7.60;;;;;;;-0.35;94.26;100391.12;1860190;77;21027;-71
2021/03/03 02:25:33;;;;;;;14.15;6.95;;;;;;;-0.37;94.21;100387.81;1860551;77;20967;-70
2021/03/03 02:28:04;;;;;;;23.77;7.80;;;;;;;-0.37;94.35;100395.39;1828900;77;21214;-70
2021/03/03 02:30:31;;;;;;;22.02;8.20;;;;;;;-0.36;94.44;100393.52;1860298;77;21019;-70
2021/03/03 02:32:59;;;;;;;18.45;7.87;;;;;;;-0.39;94.29;100399.36;1860344;77;20947;-71
2021/03/03 02:35:28;;;;;;;14.03;6.83;;;;;;;-0.41;94.28;100404.97;1826620;77;20999;-70
2021/03/03 02:37:58;;;;;;;14.30;6.85;;;;;;;-0.43;94.30;100404.38;1854102;77;21157;-70
2021/03/03 02:40:27;;;;;;;13.83;6.05;;;;;;;-0.41;94.39;100413.59;1826797;78;21364;-69
2021/03/03 02:42:55;;;;;;;18.23;7.85;;;;;;;-0.43;94.35;100414.34;1826580;78;21184;-69
2021/03/03 02:45:25;;;;;;;20.90;7.83;;;;;;;-0.43;94.42;100411.12;1826710;78;21120;-69
2021/03/03 02:47:53;;;;;;;17.87;7.78;;;;;;;-0.44;94.35;100415.39;1826616;78;21006;-69
2021/03/03 02:50:21;;;;;;;14.38;7.33;;;;;;;-0.43;94.56;100417.86;1794995;78;21122;-69
2021/03/03 02:52:56;;;;;;;16.02;7.15;;;;;;;-0.42;94.54;100417.34;1826738;78;22098;-69
2021/03/03 02:55:26;;;;;;;15.80;6.83;;;;;;;-0.43;94.52;100419.73;1826569;78;20996;-69
2021/03/03 02:58:01;;;;;;;14.20;7.33;;;;;;;-0.43;94.59;100414.34;1826775;78;20931;-69
2021/03/03 03:00:35;;;;;;;13.32;6.47;;;;;;;-0.42;94.82;100427.61;1827097;78;20932;-69
2021/03/03 03:03:27;;;;;;;15.30;6.67;;;;;;;-0.41;94.88;100424.38;1827081;78;21008;-69
2021/03/03 03:06:23;;;;;;;12.28;6.53;;;;;;;-0.43;94.70;100421.91;1827183;78;20960;-69
2021/03/03 03:09:13;;;;;;;17.27;7.58;;;;;;;-0.45;94.60;100415.08;1826815;78;21183;-69
2021/03/03 03:11:59;;;;;;;13.15;7.05;;;;;;;-0.44;94.96;100418.08;1826833;78;20998;-68
2021/03/03 03:14:47;;;;;;;16.80;7.97;;;;;;;-0.41;95.04;100418.98;1800368;78;20922;-68
2021/03/03 03:17:15;;;;;;;17.07;7.70;;;;;;;-0.44;94.91;100425.65;1827188;78;21514;-68
2021/03/03 03:19:44;;;;;;;19.45;8.63;;;;;;;-0.45;94.86;100423.17;1795038;78;21502;-68
2021/03/03 03:22:15;;;;;;;20.32;8.58;;;;;;;-0.45;95.23;100421.30;1826490;78;21558;-69
2021/03/03 03:24:42;;;;;;;19.82;8.13;;;;;;;-0.43;95.46;100427.83;1826381;78;21038;-68
2021/03/03 03:27:11;;;;;;;15.32;7.47;;;;;;;-0.46;95.12;100433.14;1826280;78;21161;-69
2021/03/03 03:29:42;;;;;;;15.65;6.70;;;;;;;-0.52;94.85;100435.38;1826557;78;20991;-69
2021/03/03 03:32:11;;;;;;;;;;;;;;;-0.59;94.92;100431.12;1795410;78;22331;-69
2021/03/03 03:34:39;;;;;;;17.87;7.08;;;;;;;-0.60;95.58;100434.86;1826383;78;20650;-68
2021/03/03 03:37:07;;;;;;;15.53;7.35;;;;;;;-0.60;95.65;100437.56;1826316;78;21031;-74
2021/03/03 03:39:35;;;;;;;17.75;8.05;;;;;;;-0.62;95.59;100443.17;1826363;77;20951;-75
2021/03/03 03:42:02;;;;;;;17.32;7.90;;;;;;;-0.63;95.62;100446.91;1826354;78;20912;-69
2021/03/03 03:44:31;;;;;;;18.50;7.65;;;;;;;-0.63;95.87;100443.39;1825335;78;21429;-70
2021/03/03 03:46:58;;;;;;;20.08;7.75;;;;;;;-0.62;95.98;100442.34;1824432;78;20955;-69
2021/03/03 03:49:26;;;;;;;21.77;7.00;;;;;;;-0.62;95.90;100445.05;1825064;78;21616;-69
2021/03/03 03:51:53;;;;;;;20.55;8.28;;;;;;;-0.62;95.94;100440.47;1787885;78;21160;-70
2021/03/03 03:54:21;;;;;;;15.10;7.33;;;;;;;-0.58;96.28;100444.37;1817528;78;21203;-69
2021/03/03 03:56:48;;;;;;;18.52;8.15;;;;;;;-0.54;96.25;100440.69;1815461;78;21503;-71
2021/03/03 03:59:15;;;;;;;20.32;8.93;;;;;;;-0.53;96.01;100435.07;1817664;78;21061;-69
2021/03/03 04:01:43;;;;;;;19.15;8.33;;;;;;;-0.52;96.12;100442.12;1816049;78;20969;-71
2021/03/03 04:04:11;;;;;;;16.35;7.70;;;;;;;-0.51;95.98;100448.34;1825957;78;20989;-70
2021/03/03 04:06:39;;;;;;;19.82;8.83;;;;;;;-0.50;96.09;100448.64;1826241;78;21005;-70
2021/03/03 04:09:06;;;;;;;19.57;9.40;;;;;;;-0.50;95.97;100449.98;1793496;78;21366;-70
2021/03/03 04:11:33;;;;;;;19.52;9.10;;;;;;;-0.49;95.89;100451.64;1777994;80;21084;-71
2021/03/03 04:14:01;;;;;;;17.77;8.50;;;;;;;-0.49;95.63;100440.84;1778690;80;20882;-71
2021/03/03 04:16:29;;;;;;;19.77;8.45;;;;;;;-0.48;95.67;100449.25;1789789;80;21520;-71
2021/03/03 04:18:56;;;;;;;19.92;8.65;;;;;;;-0.48;95.65;100447.89;1790471;80;21022;-72
2021/03/03 04:21:23;;;;;;;19.65;8.13;;;;;;;-0.48;95.62;100441.98;1790025;80;22031;-73
2021/03/03 04:23:51;;;;;;;16.20;7.53;;;;;;;-0.50;95.40;100446.77;1790431;80;21483;-72
2021/03/03 04:26:18;;;;;;;16.90;8.68;;;;;;;-0.52;95.36;100448.86;1790741;80;21021;-72
2021/03/03 04:28:46;;;;;;;15.05;8.00;;;;;;;-0.50;95.44;100452.69;1790454;80;21020;-70
2021/03/03 04:31:14;;;;;;;16.15;8.68;;;;;;;-0.51;95.30;100455.08;1790407;80;21048;-69
2021/03/03 04:33:42;;;;;;;17.02;9.00;;;;;;;-0.53;95.17;100462.56;1790583;80;21849;-69
2021/03/03 04:36:10;;;;;;;19.37;8.65;;;;;;;-0.57;95.03;100459.48;1790376;80;21583;-69
2021/03/03 04:38:37;;;;;;;16.73;8.25;;;;;;;-0.58;95.19;100461.09;1790446;80;21013;-69
2021/03/03 04:41:05;;;;;;;16.55;7.45;;;;;;;-0.60;95.38;100460.48;1790581;80;21420;-69
2021/03/03 04:43:32;;;;;;;17.50;8.88;;;;;;;-0.61;95.32;100473.14;1788866;80;21115;-69
2021/03/03 04:46:00;;;;;;;18.80;8.65;;;;;;;-0.67;95.00;100476.19;1789015;79;21667;-70
2021/03/03 04:48:27;;;;;;;19.05;8.65;;;;;;;-0.69;95.17;100478.28;1787160;80;21024;-69
2021/03/03 04:50:55;;;;;;;15.60;6.95;;;;;;;-0.71;95.29;100481.72;1771183;81;21066;-70
2021/03/03 04:53:23;;;;;;;11.28;6.87;;;;;;;-0.75;95.24;100484.55;1760936;81;20938;-70
2021/03/03 04:55:51;;;;;;;15.45;7.37;;;;;;;-0.77;95.22;100494.73;1729110;83;20934;-69
2021/03/03 04:58:18;;;;;;;16.85;7.35;;;;;;;-0.79;95.24;100494.64;1760809;81;21547;-70
2021/03/03 05:00:46;;;;;;;17.30;8.50;;;;;;;-0.78;95.49;100493.59;1729105;83;20989;-69
2021/03/03 05:03:15;;;;;;;19.12;8.85;;;;;;;-0.76;95.64;100497.73;1753719;81;21021;-69
2021/03/03 05:05:43;;;;;;;21.73;9.98;;;;;;;-0.75;95.60;100496.68;1739945;82;20931;-69
2021/03/03 05:08:10;;;;;;;18.20;7.05;;;;;;;-0.72;95.68;100510.25;1744042;81;21211;-70
2021/03/03 05:10:38;;;;;;;17.40;8.13;;;;;;;-0.68;95.80;100514.98;1765603;81;22900;-68
2021/03/03 05:13:05;;;;;;;18.52;8.75;;;;;;;-0.67;95.65;100517.98;1765043;81;21207;-70
2021/03/03 05:15:33;;;;;;;16.37;7.72;;;;;;;-0.65;95.63;100516.42;1733465;81;21512;-70
2021/03/03 05:18:01;;;;;;;18.27;8.13;;;;;;;-0.62;95.68;100514.64;1765475;81;20973;-70
2021/03/03 05:20:28;;;;;;;15.60;7.58;;;;;;;-0.57;95.78;100509.91;1765385;81;21013;-69
2021/03/03 05:22:56;;;;;;;15.28;6.65;;;;;;;-0.50;95.80;100524.16;1765175;81;21144;-70
2021/03/03 05:25:24;;;;;;;14.30;7.83;;;;;;;-0.45;95.63;100516.24;1765346;81;21554;-69
2021/03/03 05:27:51;;;;;;;18.85;8.13;;;;;;;-0.42;95.44;100524.72;1765370;80;21564;-71
2021/03/03 05:30:22;;;;;;;16.12;7.83;;;;;;;-0.39;95.41;100520.23;1765505;80;21607;-70
2021/03/03 05:32:50;;;;;;;14.38;7.78;;;;;;;-0.32;95.62;100529.63;1765042;81;21001;-69
2021/03/03 05:35:19;;;;;;;19.48;8.88;;;;;;;-0.27;95.28;100539.23;1765421;81;21413;-69
2021/03/03 05:37:46;;;;;;;16.48;8.25;;;;;;;-0.20;95.51;100533.78;1765251;81;21061;-70
2021/03/03 05:40:14;;;;;;;14.55;7.65;;;;;;;-0.12;95.46;100542.95;1765195;81;21136;-71
2021/03/03 05:42:42;;;;;;;18.48;9.20;;;;;;;-0.07;95.10;100545.81;1765183;80;21095;-71
2021/03/03 05:45:11;;;;;;;16.05;7.87;;;;;;;-0.04;94.79;100556.98;1765377;80;21060;-71
2021/03/03 05:47:39;;;;;;;19.57;8.30;;;;;;;0.01;94.69;100557.64;1765234;81;21147;-72
2021/03/03 05:50:09;;;;;;;22.75;7.78;;;;;;;0.04;94.23;100555.84;1765067;80;21041;-71
2021/03/03 05:52:36;;;;;;;19.37;8.30;;;;;;;0.06;93.83;100557.80;1762599;80;21053;-69
2021/03/03 05:55:05;;;;;;;14.65;7.30;;;;;;;0.09;93.71;100564.63;1765108;81;21018;-70
2021/03/03 05:57:33;;;;;;;16.23;7.70;;;;;;;0.10;93.41;100567.11;1765469;81;21064;-72
2021/03/03 06:00:08;;;;;;;16.65;7.90;;;;;;;0.12;93.24;100569.59;1765445;81;21538;-68
2021/03/03 06:02:37;;;;;;;14.33;6.28;;;;;;;0.13;93.47;100567.19;1734897;82;21058;-69
2021/03/03 06:05:08;;;;;;;18.92;9.08;;;;;;;0.14;93.00;100575.07;1761576;80;21127;-68
2021/03/03 06:07:35;;;;;;;16.55;7.50;;;;;;;0.15;92.76;100578.59;1731894;81;21012;-71
2021/03/03 06:10:06;;;;;;;15.28;7.65;;;;;;;0.17;93.45;100575.98;1727939;81;21067;-72
2021/03/03 06:12:33;;;;;;;34.08;15.08;;;;;;;0.23;93.20;100579.14;1755943;81;21205;-73
2021/03/03 06:15:02;;;;;;;19.57;10.23;;;;;;;0.26;92.26;100577.34;1755683;81;21618;-71
2021/03/03 06:17:30;;;;;;;38.35;17.00;;;;;;;0.29;92.27;100576.07;1755000;81;21782;-71
2021/03/03 06:19:58;;;;;;;31.00;15.48;;;;;;;0.35;92.20;100573.00;1755227;81;21178;-73
2021/03/03 06:22:27;;;;;;;22.93;10.63;;;;;;;0.42;92.10;100571.88;1755303;81;21234;-71
2021/03/03 06:24:57;;;;;;;22.07;10.25;;;;;;;0.49;91.80;100562.36;1755303;81;21371;-68
2021/03/03 06:27:25;;;;;;;21.45;10.68;;;;;;;0.55;91.26;100566.34;1758186;81;21178;-72
2021/03/03 06:30:12;;;;;;;23.87;11.08;;;;;;;0.60;90.86;100559.70;1732538;81;21079;-67
2021/03/03 06:33:04;;;;;;;21.95;11.43;;;;;;;0.68;90.83;100556.39;1757837;81;21206;-69
2021/03/03 06:35:44;;;;;;;36.53;15.93;;;;;;;0.83;91.22;100558.19;1758178;81;21094;-69
2021/03/03 06:38:14;;;;;;;40.78;15.35;;;;;;;0.92;89.77;100557.64;1757892;80;21554;-68
2021/03/03 06:40:55;;;;;;;22.90;10.95;;;;;;;0.94;88.33;100553.36;1756505;80;21206;-74
2021/03/03 06:43:29;;;;;;;18.40;8.55;;;;;;;0.94;87.92;100560.13;1751753;81;21174;-71
2021/03/03 06:45:59;;;;;;;21.27;11.28;;;;;;;1.01;88.52;100555.98;1758029;81;21201;-72
2021/03/03 06:48:40;;;;;;;30.82;13.28;;;;;;;1.15;88.45;100555.58;1755699;81;21158;-72
2021/03/03 06:51:30;;;;;;;28.10;11.80;;;;;;;1.29;87.40;100552.95;1759918;80;21382;-72
2021/03/03 06:54:03;;;;;;;65.25;23.67;;;;;;;1.42;85.67;100555.17;1773774;80;21583;-72
2021/03/03 06:56:42;;;;;;;60.00;25.08;;;;;;;1.52;86.07;100558.14;1774371;80;21105;-73
2021/03/03 06:59:15;;;;;;;23.75;9.88;;;;;;;1.65;85.36;100555.23;1755739;80;21054;-71
2021/03/03 07:01:44;;;;;;;30.70;12.90;;;;;;;1.72;83.43;100557.83;1754983;81;21040;-76
2021/03/03 07:04:30;;;;;;;21.87;9.90;;;;;;;1.65;82.72;100553.88;1755336;80;21353;-77
2021/03/03 07:07:13;;;;;;;18.50;9.23;;;;;;;1.64;83.77;100556.28;1762434;80;21195;-82
2021/03/03 07:09:50;;;;;;;12.65;7.45;;;;;;;1.70;83.41;100556.70;1769493;80;21152;-76
2021/03/03 07:12:21;;;;;;;15.48;7.15;;;;;;;1.77;83.42;100556.05;1765737;81;21148;-75
2021/03/03 07:15:07;;;;;;;14.80;6.75;;;;;;;1.87;82.47;100552.23;1765663;81;21144;-76
2021/03/03 07:17:39;;;;;;;17.23;7.17;;;;;;;1.93;82.43;100558.06;1766027;81;21374;-77
2021/03/03 07:20:15;;;;;;;17.82;7.80;;;;;;;2.02;82.25;100557.72;1765871;81;21045;-78
2021/03/03 07:22:49;;;;;;;12.80;7.65;;;;;;;2.19;81.78;100552.72;1765785;81;21541;-78
2021/03/03 07:25:20;;;;;;;12.53;7.37;;;;;;;2.42;81.49;100557.80;1765962;81;21132;-75
2021/03/03 07:27:48;;;;;;;18.75;6.47;;;;;;;2.61;81.05;100559.30;1766005;81;21136;-77
2021/03/03 07:30:24;;;;;;;13.78;6.35;;;;;;;2.65;79.20;100555.05;1766134;81;21142;-75
2021/03/03 07:32:54;;;;;;;16.27;5.47;;;;;;;2.69;78.62;100553.52;1751973;81;21625;-78
2021/03/03 07:35:24;;;;;;;25.00;10.03;;;;;;;2.76;77.97;100554.73;1787155;80;21056;-75
2021/03/03 07:37:54;;;;;;;18.95;8.55;;;;;;;2.74;77.51;100560.93;1789566;79;21029;-76
2021/03/03 07:40:30;;;;;;;48.40;16.27;;;;;;;2.64;77.67;100558.30;1790008;80;21537;-75
2021/03/03 07:43:02;;;;;;;99.80;30.40;;;;;;;2.60;77.34;100557.12;1789700;80;21214;-77
2021/03/03 07:45:41;;;;;;;139.82;41.90;;;;;;;2.54;77.53;100560.78;1789928;80;20929;-74
2021/03/03 07:48:11;;;;;;;53.25;19.17;;;;;;;2.52;77.26;100556.66;1789690;80;20973;-74
2021/03/03 07:50:40;;;;;;;33.35;14.45;;;;;;;2.50;78.04;100550.13;1789803;80;21095;-79
2021/03/03 07:53:09;;;;;;;19.98;9.90;;;;;;;2.49;77.88;100551.72;1789273;80;21153;-80
2021/03/03 07:55:37;;;;;;;13.62;7.10;;;;;;;2.54;78.47;100556.72;1789826;80;22232;-76
2021/03/03 07:58:07;;;;;;;15.08;7.17;;;;;;;2.62;77.37;100553.64;1790023;80;20957;-77
2021/03/03 08:00:40;;;;;;;15.37;6.90;;;;;;;2.63;77.84;100559.89;1785019;80;20989;-76
2021/03/03 08:03:07;;;;;;;14.13;7.65;;;;;;;2.65;77.64;100552.34;1786802;80;21590;-76
2021/03/03 08:05:40;;;;;;;24.63;9.73;;;;;;;2.69;77.29;100558.11;1784813;80;21599;-76
2021/03/03 08:08:26;;;;;;;57.93;19.80;;;;;;;2.65;77.10;100555.05;1789640;80;21603;-77
2021/03/03 08:11:08;;;;;;;14.95;7.97;;;;;;;2.64;76.95;100559.65;1794280;80;21512;-78
2021/03/03 08:13:39;;;;;;;14.98;7.17;;;;;;;2.64;77.18;100561.53;1795655;80;21615;-77
2021/03/03 08:16:07;;;;;;;19.20;8.40;;;;;;;2.63;76.28;100566.13;1791176;80;21080;-80
2021/03/03 08:18:54;;;;;;;22.02;9.35;;;;;;;2.56;77.22;100568.68;1787786;80;21529;-79
2021/03/03 08:21:25;;;;;;;17.65;8.00;;;;;;;2.51;76.95;100571.28;1782863;80;21911;-80
2021/03/03 08:24:00;;;;;;;17.07;8.40;;;;;;;2.32;77.46;100571.41;1795713;80;21480;-79
2021/03/03 08:26:33;;;;;;;16.75;7.42;;;;;;;2.27;78.32;100574.56;1795669;80;21005;-80
2021/03/03 08:29:20;;;;;;;12.90;6.90;;;;;;;2.26;78.24;100569.67;1795377;80;21139;-77
2021/03/03 08:31:47;;;;;;;19.42;8.35;;;;;;;2.27;77.90;100572.68;1795431;80;21123;-74
2021/03/03 08:34:15;;;;;;;19.00;7.50;;;;;;;2.33;78.11;100572.23;1789108;79;22372;-75
2021/03/03 08:36:49;;;;;;;12.80;6.45;;;;;;;2.37;77.08;100580.19;1787681;80;21052;-77
2021/03/03 08:39:22;;;;;;;16.85;6.75;;;;;;;2.35;77.52;100574.18;1787834;80;21136;-76
2021/03/03 08:41:50;;;;;;;14.18;6.47;;;;;;;2.41;77.11;100576.47;1787680;80;21144;-75
2021/03/03 08:44:18;;;;;;;16.42;6.12;;;;;;;2.50;76.75;100573.70;1787920;80;21113;-79
2021/03/03 08:46:48;;;;;;;12.45;6.12;;;;;;;2.62;75.99;100567.20;1787747;80;21434;-76
2021/03/03 08:49:25;;;;;;;14.38;5.45;;;;;;;2.81;75.82;100569.22;1787633;80;21564;-75
2021/03/03 08:52:09;;;;;;;12.53;5.75;;;;;;;3.10;75.77;100571.41;1771984;80;21014;-77
2021/03/03 08:54:44;;;;;;;16.65;8.05;;;;;;;3.42;74.42;100564.14;1756604;81;21045;-75
2021/03/03 08:57:30;;;;;;;13.83;6.42;;;;;;;3.63;73.32;100569.66;1756650;81;21195;-76
2021/03/03 08:59:58;;;;;;;21.05;8.68;;;;;;;3.76;71.78;100570.41;1756612;81;21504;-76
2021/03/03 09:02:37;;;;;;;14.80;7.42;;;;;;;3.82;71.71;100572.14;1756441;81;21599;-76
2021/03/03 09:05:11;;;;;;;11.97;6.97;;;;;;;4.13;71.34;100569.36;1756226;81;21156;-77
2021/03/03 09:07:38;;;;;;;14.33;7.50;;;;;;;4.55;71.00;100571.89;1756623;81;21136;-74
2021/03/03 09:10:16;;;;;;;15.08;7.03;;;;;;;5.05;69.50;100572.77;1753810;81;21075;-79
2021/03/03 09:12:44;;;;;;;16.37;7.12;;;;;;;5.23;66.38;100574.59;1750734;82;22678;-77
2021/03/03 09:15:16;;;;;;;14.15;6.67;;;;;;;5.20;66.00;100582.47;1750421;81;21184;-74
2021/03/03 09:17:45;;;;;;;;;;;;;;;5.29;65.85;100585.00;1753321;81;21596;-69
2021/03/03 09:20:16;;;;;;;17.60;8.13;;;;;;;5.28;65.00;100581.45;1750686;82;20581;-75
2021/03/03 09:22:46;;;;;;;15.98;8.70;;;;;;;5.10;65.40;100580.99;1751812;80;21172;-73
2021/03/03 09:25:20;;;;;;;18.87;7.20;;;;;;;5.38;67.10;100582.64;1753327;81;22283;-74
2021/03/03 09:27:51;;;;;;;14.45;7.15;;;;;;;5.38;67.10;100582.64;1751680;81;21147;-74
2021/03/03 09:30:21;;;;;;;16.42;7.00;;;;;;;5.95;64.56;100583.75;1756800;81;21207;-74
2021/03/03 09:32:51;;;;;;;11.40;5.70;;;;;;;6.41;62.46;100579.97;1796580;79;21108;-74
2021/03/03 09:35:29;;;;;;;10.95;6.00;;;;;;;6.78;60.35;100584.55;1767121;79;21611;-75
2021/03/03 09:37:58;;;;;;;12.55;5.95;;;;;;;6.86;60.11;100582.14;1777057;80;21202;-73
2021/03/03 09:40:30;;;;;;;15.15;6.20;;;;;;;7.05;59.46;100586.56;1785270;80;21598;-75
2021/03/03 09:42:58;;;;;;;17.05;7.53;;;;;;;7.32;59.48;100581.47;1784767;79;21176;-73
2021/03/03 09:45:26;;;;;;;10.98;5.60;;;;;;;7.73;57.83;100581.80;1789272;80;21163;-72
2021/03/03 09:47:55;;;;;;;14.07;5.92;;;;;;;7.83;56.71;100582.36;1789344;79;21599;-73
2021/03/03 09:50:29;;;;;;;13.22;6.00;;;;;;;7.92;56.21;100580.72;1788935;80;21393;-73
2021/03/03 09:52:58;;;;;;;15.83;6.85;;;;;;;8.03;56.36;100574.16;1732473;82;21694;-73
2021/03/03 09:55:33;;;;;;;10.85;5.55;;;;;;;8.10;55.23;100588.35;1762578;81;21052;-73
2021/03/03 09:58:01;;;;;;;13.80;5.58;;;;;;;8.09;54.34;100583.16;1765248;80;21165;-74
2021/03/03 10:00:41;;;;;;;14.60;6.90;;;;;;;8.16;55.54;100577.69;1784126;80;21106;-74
2021/03/03 10:03:14;;;;;;;13.80;5.87;;;;;;;8.42;54.69;100579.06;1783884;80;21396;-75
2021/03/03 10:05:43;;;;;;;12.13;5.78;;;;;;;8.64;53.36;100576.00;1761399;81;21188;-74
2021/03/03 10:08:13;;;;;;;12.58;5.55;;;;;;;8.66;52.90;100572.44;1765343;81;21612;-74
2021/03/03 10:10:46;;;;;;;8.75;4.53;;;;;;;8.69;53.39;100567.75;1765154;81;21163;-74
2021/03/03 10:13:21;;;;;;;13.55;5.58;;;;;;;8.77;52.32;100569.91;1764855;81;21042;-76
2021/03/03 10:15:49;;;;;;;11.65;5.45;;;;;;;8.64;52.04;100567.25;1765101;81;21369;-74
2021/03/03 10:18:17;;;;;;;12.50;6.40;;;;;;;8.47;52.52;100563.45;1758277;80;21143;-73
2021/03/03 10:20:50;;;;;;;9.18;4.67;;;;;;;8.40;54.83;100553.34;1748937;80;20994;-74
2021/03/03 10:23:22;;;;;;;12.07;4.47;;;;;;;8.63;53.43;100561.50;1748146;81;21184;-74
2021/03/03 10:26:06;;;;;;;10.15;5.08;;;;;;;8.79;52.26;100548.55;1748334;82;21160;-74
2021/03/03 10:28:36;;;;;;;13.43;5.80;;;;;;;8.78;51.74;100545.00;1748333;80;21339;-74
2021/03/03 10:31:07;;;;;;;12.80;5.15;;;;;;;8.76;52.79;100543.09;1748468;81;21131;-73
2021/03/03 10:33:41;;;;;;;29.75;5.85;;;;;;;9.05;52.90;100539.13;1748319;82;21155;-73
2021/03/03 10:36:20;;;;;;;15.13;6.83;;;;;;;9.38;52.82;100537.55;1748542;81;21590;-73
2021/03/03 10:38:53;;;;;;;20.23;6.10;;;;;;;9.69;50.15;100539.54;1748280;82;21147;-73
2021/03/03 10:41:28;;;;;;;11.78;4.85;;;;;;;9.84;51.04;100530.34;1748663;82;22292;-73
2021/03/03 10:43:57;;;;;;;9.93;4.83;;;;;;;10.06;50.75;100527.97;1748468;80;21599;-73
2021/03/03 10:46:25;;;;;;;7.50;4.28;;;;;;;10.41;48.33;100526.80;1748376;80;21029;-73
2021/03/03 10:48:56;;;;;;;7.20;4.10;;;;;;;10.49;48.04;100518.48;1748171;82;21155;-73
2021/03/03 10:51:35;;;;;;;12.23;4.80;;;;;;;10.45;47.14;100522.92;1746835;82;21456;-73
2021/03/03 10:54:04;;;;;;;8.05;4.03;;;;;;;10.28;47.35;100519.28;1762475;81;22130;-73
2021/03/03 10:56:43;;;;;;;11.50;5.17;;;;;;;10.17;48.32;100530.06;1762338;81;21085;-73
2021/03/03 11:02:09;;;;;;;15.15;6.62;;;;;;;9.90;48.04;100519.05;1776197;79;22516;-74
2021/03/03 11:04:46;;;;;;;11.55;5.45;;;;;;;9.70;47.96;100527.47;1749071;81;21599;-75
2021/03/03 11:07:15;;;;;;;11.53;5.33;;;;;;;9.62;48.65;100531.38;1749050;82;21206;-73
2021/03/03 11:09:52;;;;;;;8.58;4.05;;;;;;;9.50;49.08;100525.69;1749050;82;21030;-73
2021/03/03 11:12:23;;;;;;;8.70;4.20;;;;;;;9.53;48.80;100513.34;1749108;82;21053;-73
2021/03/03 11:14:51;;;;;;;6.83;3.77;;;;;;;9.55;49.02;100511.13;1748862;82;20995;-74
2021/03/03 11:17:19;;;;;;;12.10;3.60;;;;;;;9.70;48.75;100506.91;1732664;82;21002;-74
2021/03/03 11:19:47;;;;;;;8.55;3.95;;;;;;;9.81;47.48;100514.50;1748109;82;22159;-73
2021/03/03 11:22:15;;;;;;;7.42;3.80;;;;;;;9.72;47.96;100510.18;1719809;82;21018;-74
2021/03/03 11:24:43;;;;;;;6.95;3.58;;;;;;;9.73;48.24;100515.94;1748872;82;20939;-74
2021/03/03 11:27:10;;;;;;;7.95;4.00;;;;;;;9.90;47.52;100509.45;1748920;82;21679;-75
2021/03/03 11:29:38;;;;;;;12.70;4.33;;;;;;;9.83;47.68;100506.22;1749052;82;21176;-74
2021/03/03 11:32:07;;;;;;;8.45;4.70;;;;;;;9.93;47.86;100502.57;1747376;82;22458;-74
2021/03/03 11:34:35;;;;;;;10.55;5.30;;;;;;;10.07;47.26;100502.72;1757633;80;21193;-75
2021/03/03 11:37:03;;;;;;;7.10;3.40;;;;;;;10.09;48.05;100496.39;1750473;80;21145;-74
2021/03/03 11:39:30;;;;;;;8.55;4.55;;;;;;;10.29;47.21;100488.55;1708808;82;21153;-75
2021/03/03 11:41:59;;;;;;;9.73;4.60;;;;;;;10.50;46.84;100484.44;1708726;84;21590;-75